Strakonice, Czech Republic
Current Conditions -  °F | °C
As of 5:00 AM on Friday 28 Nov 2014 (Local Time) from LKLN Reporting Station
Overcast Overcast  
Wind Chill: 28°   Ceiling: 900
Heat Index: 34°   Visibility: 5mi
Dew Point: 32°   Wind: 7mph
Humidity: 93%   Direction: 120°ESE
Pressure: 29.94"   Gusts: NA
Location:  49.26°N, 13.91°E
Report Text: LKLN 280300Z AUTO 12006KT 8000 OVC009 01/M00 Q1014
Loading
Personal Weather Stations






























Interactive Weather Map New forecast layout! Learn more

10-Day Weather Forecast

Advertisements
Track Severe Weather on mobile